sensor_id;sensor_type;location;lat;lon;timestamp;P1;durP1;ratioP1;P2;durP2;ratioP2
5521;SDS011;2783;48.730;8.006;2023-07-30T00:02:19;2.15;;;0.90;;
5521;SDS011;2783;48.730;8.006;2023-07-30T00:04:45;2.58;;;0.90;;
5521;SDS011;2783;48.730;8.006;2023-07-30T00:07:11;2.97;;;0.88;;
5521;SDS011;2783;48.730;8.006;2023-07-30T00:09:37;2.20;;;0.90;;
5521;SDS011;2783;48.730;8.006;2023-07-30T00:12:04;2.03;;;0.85;;
5521;SDS011;2783;48.730;8.006;2023-07-30T00:14:30;1.23;;;0.77;;
5521;SDS011;2783;48.730;8.006;2023-07-30T00:16:55;3.25;;;0.90;;
5521;SDS011;2783;48.730;8.006;2023-07-30T00:19:20;2.30;;;0.80;;
5521;SDS011;2783;48.730;8.006;2023-07-30T00:21:47;1.83;;;0.77;;
5521;SDS011;2783;48.730;8.006;2023-07-30T00:24:12;1.80;;;0.80;;
5521;SDS011;2783;48.730;8.006;2023-07-30T00:26:38;2.22;;;0.85;;
5521;SDS011;2783;48.730;8.006;2023-07-30T00:29:04;1.35;;;0.98;;
5521;SDS011;2783;48.730;8.006;2023-07-30T00:31:29;1.35;;;0.60;;
5521;SDS011;2783;48.730;8.006;2023-07-30T00:33:55;1.20;;;0.70;;
5521;SDS011;2783;48.730;8.006;2023-07-30T00:36:20;1.58;;;0.70;;
5521;SDS011;2783;48.730;8.006;2023-07-30T00:38:45;1.13;;;0.70;;
5521;SDS011;2783;48.730;8.006;2023-07-30T00:41:11;1.63;;;0.70;;
5521;SDS011;2783;48.730;8.006;2023-07-30T00:43:36;1.50;;;0.65;;
5521;SDS011;2783;48.730;8.006;2023-07-30T00:46:02;0.88;;;0.60;;
5521;SDS011;2783;48.730;8.006;2023-07-30T00:48:27;1.85;;;0.90;;
5521;SDS011;2783;48.730;8.006;2023-07-30T00:50:53;1.35;;;0.77;;
5521;SDS011;2783;48.730;8.006;2023-07-30T00:53:19;1.95;;;0.80;;
5521;SDS011;2783;48.730;8.006;2023-07-30T00:55:47;2.17;;;0.80;;
5521;SDS011;2783;48.730;8.006;2023-07-30T00:58:13;2.40;;;0.77;;
5521;SDS011;2783;48.730;8.006;2023-07-30T01:00:39;1.20;;;0.70;;
5521;SDS011;2783;48.730;8.006;2023-07-30T01:03:05;1.73;;;0.80;;
5521;SDS011;2783;48.730;8.006;2023-07-30T01:05:31;1.95;;;0.70;;
5521;SDS011;2783;48.730;8.006;2023-07-30T01:07:56;1.75;;;0.93;;
5521;SDS011;2783;48.730;8.006;2023-07-30T01:10:22;1.38;;;0.70;;
5521;SDS011;2783;48.730;8.006;2023-07-30T01:12:48;2.90;;;1.10;;
5521;SDS011;2783;48.730;8.006;2023-07-30T01:15:14;3.45;;;1.15;;
5521;SDS011;2783;48.730;8.006;2023-07-30T01:17:40;2.58;;;1.25;;
5521;SDS011;2783;48.730;8.006;2023-07-30T01:20:06;2.40;;;0.95;;
5521;SDS011;2783;48.730;8.006;2023-07-30T01:22:32;2.55;;;1.13;;
5521;SDS011;2783;48.730;8.006;2023-07-30T01:24:57;4.35;;;1.58;;
5521;SDS011;2783;48.730;8.006;2023-07-30T01:27:24;4.82;;;1.63;;
5521;SDS011;2783;48.730;8.006;2023-07-30T01:30:40;3.25;;;1.30;;
5521;SDS011;2783;48.730;8.006;2023-07-30T01:32:43;3.63;;;1.65;;
5521;SDS011;2783;48.730;8.006;2023-07-30T01:35:09;6.80;;;2.22;;
5521;SDS011;2783;48.730;8.006;2023-07-30T01:37:38;3.50;;;1.70;;
5521;SDS011;2783;48.730;8.006;2023-07-30T01:40:06;3.90;;;1.92;;
5521;SDS011;2783;48.730;8.006;2023-07-30T01:42:34;4.95;;;2.00;;
5521;SDS011;2783;48.730;8.006;2023-07-30T01:44:59;4.10;;;1.80;;
5521;SDS011;2783;48.730;8.006;2023-07-30T01:47:24;5.22;;;2.03;;
5521;SDS011;2783;48.730;8.006;2023-07-30T01:49:50;4.72;;;1.92;;
5521;SDS011;2783;48.730;8.006;2023-07-30T01:52:15;4.65;;;2.15;;
5521;SDS011;2783;48.730;8.006;2023-07-30T01:54:41;5.25;;;1.65;;
5521;SDS011;2783;48.730;8.006;2023-07-30T01:57:07;6.47;;;2.40;;
5521;SDS011;2783;48.730;8.006;2023-07-30T01:59:32;4.63;;;2.50;;
5521;SDS011;2783;48.730;8.006;2023-07-30T02:01:58;5.20;;;2.28;;
5521;SDS011;2783;48.730;8.006;2023-07-30T02:04:23;4.00;;;2.08;;
5521;SDS011;2783;48.730;8.006;2023-07-30T02:06:49;4.55;;;2.35;;
5521;SDS011;2783;48.730;8.006;2023-07-30T02:09:14;4.72;;;2.40;;
5521;SDS011;2783;48.730;8.006;2023-07-30T02:11:39;5.63;;;2.40;;
5521;SDS011;2783;48.730;8.006;2023-07-30T02:14:05;5.13;;;2.30;;
5521;SDS011;2783;48.730;8.006;2023-07-30T02:16:30;4.07;;;2.17;;
5521;SDS011;2783;48.730;8.006;2023-07-30T02:18:55;5.03;;;2.30;;
5521;SDS011;2783;48.730;8.006;2023-07-30T02:21:21;5.43;;;2.58;;
5521;SDS011;2783;48.730;8.006;2023-07-30T02:23:46;4.25;;;2.15;;
5521;SDS011;2783;48.730;8.006;2023-07-30T02:26:12;7.57;;;2.53;;
5521;SDS011;2783;48.730;8.006;2023-07-30T02:28:37;5.43;;;2.72;;
5521;SDS011;2783;48.730;8.006;2023-07-30T02:31:02;4.28;;;2.22;;
5521;SDS011;2783;48.730;8.006;2023-07-30T02:33:28;5.68;;;2.85;;
5521;SDS011;2783;48.730;8.006;2023-07-30T02:35:53;4.40;;;2.40;;
5521;SDS011;2783;48.730;8.006;2023-07-30T02:38:19;5.95;;;2.53;;
5521;SDS011;2783;48.730;8.006;2023-07-30T02:40:44;4.68;;;2.55;;
5521;SDS011;2783;48.730;8.006;2023-07-30T02:43:09;3.65;;;2.05;;
5521;SDS011;2783;48.730;8.006;2023-07-30T02:45:35;4.72;;;2.30;;
5521;SDS011;2783;48.730;8.006;2023-07-30T02:48:00;4.57;;;2.28;;
5521;SDS011;2783;48.730;8.006;2023-07-30T02:50:25;4.35;;;2.25;;
5521;SDS011;2783;48.730;8.006;2023-07-30T02:52:51;4.35;;;2.20;;
5521;SDS011;2783;48.730;8.006;2023-07-30T02:55:16;4.43;;;2.20;;
5521;SDS011;2783;48.730;8.006;2023-07-30T02:57:42;4.97;;;2.33;;
5521;SDS011;2783;48.730;8.006;2023-07-30T03:00:07;4.90;;;2.10;;
5521;SDS011;2783;48.730;8.006;2023-07-30T03:02:34;4.32;;;2.35;;
5521;SDS011;2783;48.730;8.006;2023-07-30T03:04:59;3.50;;;1.85;;
5521;SDS011;2783;48.730;8.006;2023-07-30T03:07:25;3.72;;;2.10;;
5521;SDS011;2783;48.730;8.006;2023-07-30T03:09:51;4.78;;;2.00;;
5521;SDS011;2783;48.730;8.006;2023-07-30T03:12:16;3.97;;;1.88;;
5521;SDS011;2783;48.730;8.006;2023-07-30T03:14:41;3.95;;;1.98;;
5521;SDS011;2783;48.730;8.006;2023-07-30T03:17:07;3.25;;;1.67;;
5521;SDS011;2783;48.730;8.006;2023-07-30T03:19:32;5.03;;;2.08;;
5521;SDS011;2783;48.730;8.006;2023-07-30T03:21:57;3.90;;;2.05;;
5521;SDS011;2783;48.730;8.006;2023-07-30T03:24:23;3.40;;;1.90;;
5521;SDS011;2783;48.730;8.006;2023-07-30T03:26:48;3.00;;;1.80;;
5521;SDS011;2783;48.730;8.006;2023-07-30T03:29:14;29.27;;;2.92;;
5521;SDS011;2783;48.730;8.006;2023-07-30T03:31:40;4.07;;;2.10;;
5521;SDS011;2783;48.730;8.006;2023-07-30T03:34:05;8.68;;;2.42;;
5521;SDS011;2783;48.730;8.006;2023-07-30T03:36:30;3.45;;;1.80;;
5521;SDS011;2783;48.730;8.006;2023-07-30T03:38:56;3.47;;;1.60;;
5521;SDS011;2783;48.730;8.006;2023-07-30T03:41:22;4.32;;;1.70;;
5521;SDS011;2783;48.730;8.006;2023-07-30T03:43:47;5.13;;;1.58;;
5521;SDS011;2783;48.730;8.006;2023-07-30T03:46:13;4.35;;;2.28;;
5521;SDS011;2783;48.730;8.006;2023-07-30T03:48:38;5.00;;;1.70;;
5521;SDS011;2783;48.730;8.006;2023-07-30T03:51:04;4.45;;;2.22;;
5521;SDS011;2783;48.730;8.006;2023-07-30T03:53:29;2.90;;;1.52;;
5521;SDS011;2783;48.730;8.006;2023-07-30T03:55:54;4.55;;;2.00;;
5521;SDS011;2783;48.730;8.006;2023-07-30T03:58:20;4.03;;;1.20;;
5521;SDS011;2783;48.730;8.006;2023-07-30T04:00:45;2.92;;;1.70;;
5521;SDS011;2783;48.730;8.006;2023-07-30T04:03:11;3.13;;;1.80;;
5521;SDS011;2783;48.730;8.006;2023-07-30T04:05:36;3.65;;;1.63;;
5521;SDS011;2783;48.730;8.006;2023-07-30T04:08:01;4.10;;;1.88;;
5521;SDS011;2783;48.730;8.006;2023-07-30T04:10:27;4.80;;;1.75;;
5521;SDS011;2783;48.730;8.006;2023-07-30T04:12:52;4.88;;;2.00;;
5521;SDS011;2783;48.730;8.006;2023-07-30T04:15:18;3.50;;;1.73;;
5521;SDS011;2783;48.730;8.006;2023-07-30T04:17:43;2.97;;;1.55;;
5521;SDS011;2783;48.730;8.006;2023-07-30T04:20:08;4.28;;;1.90;;
5521;SDS011;2783;48.730;8.006;2023-07-30T04:22:35;3.92;;;2.10;;
5521;SDS011;2783;48.730;8.006;2023-07-30T04:25:01;8.82;;;2.05;;
5521;SDS011;2783;48.730;8.006;2023-07-30T04:27:27;3.42;;;1.70;;
5521;SDS011;2783;48.730;8.006;2023-07-30T04:29:52;3.05;;;2.03;;
5521;SDS011;2783;48.730;8.006;2023-07-30T04:32:18;7.65;;;2.05;;
5521;SDS011;2783;48.730;8.006;2023-07-30T04:34:43;9.27;;;2.00;;
5521;SDS011;2783;48.730;8.006;2023-07-30T04:37:09;3.65;;;1.90;;
5521;SDS011;2783;48.730;8.006;2023-07-30T04:39:34;3.40;;;1.60;;
5521;SDS011;2783;48.730;8.006;2023-07-30T04:42:01;2.85;;;1.40;;
5521;SDS011;2783;48.730;8.006;2023-07-30T04:44:26;3.17;;;1.77;;
5521;SDS011;2783;48.730;8.006;2023-07-30T04:46:52;3.47;;;1.70;;
5521;SDS011;2783;48.730;8.006;2023-07-30T04:49:17;8.75;;;2.13;;
5521;SDS011;2783;48.730;8.006;2023-07-30T04:51:43;5.10;;;2.03;;
5521;SDS011;2783;48.730;8.006;2023-07-30T04:54:08;3.35;;;1.80;;
5521;SDS011;2783;48.730;8.006;2023-07-30T04:56:33;4.57;;;2.17;;
5521;SDS011;2783;48.730;8.006;2023-07-30T04:58:59;5.97;;;2.05;;
5521;SDS011;2783;48.730;8.006;2023-07-30T05:01:25;3.92;;;1.95;;
5521;SDS011;2783;48.730;8.006;2023-07-30T05:03:51;6.40;;;2.10;;
5521;SDS011;2783;48.730;8.006;2023-07-30T05:06:16;5.15;;;2.10;;
5521;SDS011;2783;48.730;8.006;2023-07-30T05:08:42;6.10;;;1.88;;
5521;SDS011;2783;48.730;8.006;2023-07-30T05:11:07;3.78;;;2.05;;
5521;SDS011;2783;48.730;8.006;2023-07-30T05:13:32;4.78;;;2.40;;
5521;SDS011;2783;48.730;8.006;2023-07-30T05:15:58;5.78;;;2.28;;
5521;SDS011;2783;48.730;8.006;2023-07-30T05:18:23;4.05;;;2.13;;
5521;SDS011;2783;48.730;8.006;2023-07-30T05:20:49;6.40;;;2.20;;
5521;SDS011;2783;48.730;8.006;2023-07-30T05:23:14;4.20;;;2.30;;
5521;SDS011;2783;48.730;8.006;2023-07-30T05:25:40;5.07;;;2.00;;
5521;SDS011;2783;48.730;8.006;2023-07-30T05:28:05;4.50;;;2.00;;
5521;SDS011;2783;48.730;8.006;2023-07-30T05:30:31;5.10;;;2.10;;
5521;SDS011;2783;48.730;8.006;2023-07-30T05:32:56;4.32;;;1.90;;
5521;SDS011;2783;48.730;8.006;2023-07-30T05:35:22;4.88;;;1.95;;
5521;SDS011;2783;48.730;8.006;2023-07-30T05:37:47;5.07;;;2.08;;
5521;SDS011;2783;48.730;8.006;2023-07-30T05:40:12;4.85;;;2.05;;
5521;SDS011;2783;48.730;8.006;2023-07-30T05:42:38;4.78;;;2.20;;
5521;SDS011;2783;48.730;8.006;2023-07-30T05:45:03;4.05;;;2.05;;
5521;SDS011;2783;48.730;8.006;2023-07-30T05:47:29;4.70;;;2.60;;
5521;SDS011;2783;48.730;8.006;2023-07-30T05:49:54;5.40;;;2.28;;
5521;SDS011;2783;48.730;8.006;2023-07-30T05:52:20;5.10;;;2.00;;
5521;SDS011;2783;48.730;8.006;2023-07-30T05:54:45;3.90;;;2.47;;
5521;SDS011;2783;48.730;8.006;2023-07-30T05:57:11;7.28;;;4.20;;
5521;SDS011;2783;48.730;8.006;2023-07-30T05:59:36;6.15;;;3.17;;
5521;SDS011;2783;48.730;8.006;2023-07-30T06:02:02;8.77;;;5.07;;
5521;SDS011;2783;48.730;8.006;2023-07-30T06:04:28;9.23;;;3.85;;
5521;SDS011;2783;48.730;8.006;2023-07-30T06:06:54;5.50;;;2.42;;
5521;SDS011;2783;48.730;8.006;2023-07-30T06:09:19;5.18;;;2.28;;
5521;SDS011;2783;48.730;8.006;2023-07-30T06:11:45;5.22;;;2.47;;
5521;SDS011;2783;48.730;8.006;2023-07-30T06:14:10;5.22;;;2.60;;
5521;SDS011;2783;48.730;8.006;2023-07-30T06:16:35;6.45;;;2.38;;
5521;SDS011;2783;48.730;8.006;2023-07-30T06:19:01;4.60;;;2.40;;
5521;SDS011;2783;48.730;8.006;2023-07-30T06:21:26;3.80;;;2.20;;
5521;SDS011;2783;48.730;8.006;2023-07-30T06:23:52;6.57;;;2.15;;
5521;SDS011;2783;48.730;8.006;2023-07-30T06:26:18;4.38;;;2.22;;
5521;SDS011;2783;48.730;8.006;2023-07-30T06:28:43;7.80;;;2.08;;
5521;SDS011;2783;48.730;8.006;2023-07-30T06:31:09;4.18;;;2.20;;
5521;SDS011;2783;48.730;8.006;2023-07-30T06:33:34;5.60;;;2.30;;
5521;SDS011;2783;48.730;8.006;2023-07-30T06:36:00;8.77;;;3.05;;
5521;SDS011;2783;48.730;8.006;2023-07-30T06:38:25;3.47;;;2.10;;
5521;SDS011;2783;48.730;8.006;2023-07-30T06:40:50;6.00;;;2.40;;
5521;SDS011;2783;48.730;8.006;2023-07-30T06:43:16;10.48;;;4.10;;
5521;SDS011;2783;48.730;8.006;2023-07-30T06:45:42;4.65;;;2.22;;
5521;SDS011;2783;48.730;8.006;2023-07-30T06:48:08;6.05;;;2.38;;
5521;SDS011;2783;48.730;8.006;2023-07-30T06:50:33;5.57;;;2.38;;
5521;SDS011;2783;48.730;8.006;2023-07-30T06:52:58;5.72;;;3.58;;
5521;SDS011;2783;48.730;8.006;2023-07-30T06:55:24;5.03;;;2.40;;
5521;SDS011;2783;48.730;8.006;2023-07-30T06:57:49;3.47;;;1.83;;
5521;SDS011;2783;48.730;8.006;2023-07-30T07:00:15;6.55;;;2.45;;
5521;SDS011;2783;48.730;8.006;2023-07-30T07:02:47;4.28;;;2.72;;
5521;SDS011;2783;48.730;8.006;2023-07-30T07:05:12;6.90;;;2.90;;
5521;SDS011;2783;48.730;8.006;2023-07-30T07:07:38;9.15;;;4.25;;
5521;SDS011;2783;48.730;8.006;2023-07-30T07:10:03;8.10;;;3.47;;
5521;SDS011;2783;48.730;8.006;2023-07-30T07:12:29;10.73;;;3.50;;
5521;SDS011;2783;48.730;8.006;2023-07-30T07:14:55;6.38;;;2.50;;
5521;SDS011;2783;48.730;8.006;2023-07-30T07:17:23;7.88;;;2.80;;
5521;SDS011;2783;48.730;8.006;2023-07-30T07:19:49;9.55;;;2.90;;
5521;SDS011;2783;48.730;8.006;2023-07-30T07:22:14;6.40;;;3.42;;
5521;SDS011;2783;48.730;8.006;2023-07-30T07:24:39;6.78;;;2.33;;
5521;SDS011;2783;48.730;8.006;2023-07-30T07:27:05;6.60;;;2.15;;
5521;SDS011;2783;48.730;8.006;2023-07-30T07:29:30;5.53;;;1.75;;
5521;SDS011;2783;48.730;8.006;2023-07-30T07:31:56;5.00;;;2.08;;
5521;SDS011;2783;48.730;8.006;2023-07-30T07:34:21;4.00;;;1.60;;
5521;SDS011;2783;48.730;8.006;2023-07-30T07:36:47;4.82;;;2.08;;
5521;SDS011;2783;48.730;8.006;2023-07-30T07:39:12;4.32;;;2.08;;
5521;SDS011;2783;48.730;8.006;2023-07-30T07:41:38;5.22;;;2.20;;
5521;SDS011;2783;48.730;8.006;2023-07-30T07:44:03;7.47;;;2.22;;
5521;SDS011;2783;48.730;8.006;2023-07-30T07:46:29;7.95;;;2.30;;
5521;SDS011;2783;48.730;8.006;2023-07-30T07:48:54;5.05;;;2.88;;
5521;SDS011;2783;48.730;8.006;2023-07-30T07:51:19;4.85;;;1.75;;
5521;SDS011;2783;48.730;8.006;2023-07-30T07:53:45;4.68;;;1.90;;
5521;SDS011;2783;48.730;8.006;2023-07-30T07:56:10;2.80;;;1.27;;
5521;SDS011;2783;48.730;8.006;2023-07-30T07:58:36;3.13;;;1.48;;
5521;SDS011;2783;48.730;8.006;2023-07-30T08:01:01;5.25;;;1.75;;
5521;SDS011;2783;48.730;8.006;2023-07-30T08:03:27;3.40;;;1.70;;
5521;SDS011;2783;48.730;8.006;2023-07-30T08:05:52;7.30;;;2.10;;
5521;SDS011;2783;48.730;8.006;2023-07-30T08:08:18;3.17;;;1.75;;
5521;SDS011;2783;48.730;8.006;2023-07-30T08:10:43;5.07;;;1.60;;
5521;SDS011;2783;48.730;8.006;2023-07-30T08:13:11;3.17;;;1.50;;
5521;SDS011;2783;48.730;8.006;2023-07-30T08:15:36;5.75;;;2.72;;
5521;SDS011;2783;48.730;8.006;2023-07-30T08:18:02;4.97;;;2.17;;
5521;SDS011;2783;48.730;8.006;2023-07-30T08:20:27;2.83;;;1.40;;
5521;SDS011;2783;48.730;8.006;2023-07-30T08:22:53;4.53;;;1.70;;
5521;SDS011;2783;48.730;8.006;2023-07-30T08:25:18;1.63;;;1.10;;
5521;SDS011;2783;48.730;8.006;2023-07-30T08:27:43;3.20;;;1.55;;
5521;SDS011;2783;48.730;8.006;2023-07-30T08:30:09;2.28;;;1.38;;
5521;SDS011;2783;48.730;8.006;2023-07-30T08:32:35;2.97;;;1.40;;
5521;SDS011;2783;48.730;8.006;2023-07-30T08:35:00;3.67;;;1.48;;
5521;SDS011;2783;48.730;8.006;2023-07-30T08:37:26;2.78;;;1.10;;
5521;SDS011;2783;48.730;8.006;2023-07-30T08:39:51;4.32;;;1.42;;
5521;SDS011;2783;48.730;8.006;2023-07-30T08:42:17;3.78;;;1.35;;
5521;SDS011;2783;48.730;8.006;2023-07-30T08:44:43;5.30;;;1.40;;
5521;SDS011;2783;48.730;8.006;2023-07-30T08:47:08;4.95;;;1.55;;
5521;SDS011;2783;48.730;8.006;2023-07-30T08:49:35;2.95;;;1.50;;
5521;SDS011;2783;48.730;8.006;2023-07-30T08:52:00;3.65;;;1.63;;
5521;SDS011;2783;48.730;8.006;2023-07-30T08:54:29;5.18;;;1.48;;
5521;SDS011;2783;48.730;8.006;2023-07-30T08:56:56;2.38;;;1.20;;
5521;SDS011;2783;48.730;8.006;2023-07-30T08:59:24;5.10;;;1.83;;
5521;SDS011;2783;48.730;8.006;2023-07-30T09:01:56;2.83;;;1.45;;
5521;SDS011;2783;48.730;8.006;2023-07-30T09:04:23;2.83;;;1.38;;
5521;SDS011;2783;48.730;8.006;2023-07-30T09:06:49;3.08;;;1.30;;
5521;SDS011;2783;48.730;8.006;2023-07-30T09:09:15;3.95;;;1.45;;
5521;SDS011;2783;48.730;8.006;2023-07-30T09:11:40;3.60;;;1.70;;
5521;SDS011;2783;48.730;8.006;2023-07-30T09:14:06;2.80;;;1.55;;
5521;SDS011;2783;48.730;8.006;2023-07-30T09:16:32;3.25;;;1.67;;
5521;SDS011;2783;48.730;8.006;2023-07-30T09:18:57;3.42;;;1.35;;
5521;SDS011;2783;48.730;8.006;2023-07-30T09:21:29;2.83;;;1.13;;
5521;SDS011;2783;48.730;8.006;2023-07-30T09:23:56;2.92;;;1.40;;
5521;SDS011;2783;48.730;8.006;2023-07-30T09:26:23;4.05;;;1.13;;
5521;SDS011;2783;48.730;8.006;2023-07-30T09:28:48;3.42;;;1.25;;
5521;SDS011;2783;48.730;8.006;2023-07-30T09:31:14;2.65;;;1.20;;
5521;SDS011;2783;48.730;8.006;2023-07-30T09:33:42;4.10;;;1.40;;
5521;SDS011;2783;48.730;8.006;2023-07-30T09:36:08;3.05;;;1.20;;
5521;SDS011;2783;48.730;8.006;2023-07-30T09:38:41;2.50;;;1.38;;
5521;SDS011;2783;48.730;8.006;2023-07-30T09:41:08;2.58;;;1.30;;
5521;SDS011;2783;48.730;8.006;2023-07-30T09:43:34;2.95;;;1.65;;
5521;SDS011;2783;48.730;8.006;2023-07-30T09:46:05;3.78;;;1.90;;
5521;SDS011;2783;48.730;8.006;2023-07-30T09:48:32;2.67;;;1.45;;
5521;SDS011;2783;48.730;8.006;2023-07-30T09:50:59;2.25;;;1.20;;
5521;SDS011;2783;48.730;8.006;2023-07-30T09:53:28;5.97;;;1.73;;
5521;SDS011;2783;48.730;8.006;2023-07-30T09:56:03;3.20;;;1.38;;
5521;SDS011;2783;48.730;8.006;2023-07-30T09:58:30;3.85;;;1.50;;
5521;SDS011;2783;48.730;8.006;2023-07-30T10:00:59;4.72;;;1.60;;
5521;SDS011;2783;48.730;8.006;2023-07-30T10:03:26;2.17;;;1.13;;
5521;SDS011;2783;48.730;8.006;2023-07-30T10:05:53;3.97;;;1.45;;
5521;SDS011;2783;48.730;8.006;2023-07-30T10:08:25;2.42;;;1.25;;
5521;SDS011;2783;48.730;8.006;2023-07-30T10:10:54;5.72;;;1.13;;
5521;SDS011;2783;48.730;8.006;2023-07-30T10:13:20;4.00;;;1.27;;
5521;SDS011;2783;48.730;8.006;2023-07-30T10:15:47;3.50;;;1.25;;
5521;SDS011;2783;48.730;8.006;2023-07-30T10:18:12;2.17;;;1.10;;
5521;SDS011;2783;48.730;8.006;2023-07-30T10:20:38;2.47;;;1.20;;
5521;SDS011;2783;48.730;8.006;2023-07-30T10:23:04;3.92;;;1.40;;
5521;SDS011;2783;48.730;8.006;2023-07-30T10:25:42;4.35;;;1.02;;
5521;SDS011;2783;48.730;8.006;2023-07-30T10:28:44;1.60;;;1.00;;
5521;SDS011;2783;48.730;8.006;2023-07-30T10:31:08;3.05;;;0.95;;
5521;SDS011;2783;48.730;8.006;2023-07-30T10:33:47;2.53;;;1.15;;
5521;SDS011;2783;48.730;8.006;2023-07-30T10:37:16;3.67;;;1.02;;
5521;SDS011;2783;48.730;8.006;2023-07-30T10:39:18;3.95;;;0.90;;
5521;SDS011;2783;48.730;8.006;2023-07-30T10:41:46;3.38;;;1.38;;
5521;SDS011;2783;48.730;8.006;2023-07-30T10:44:24;2.78;;;0.80;;
5521;SDS011;2783;48.730;8.006;2023-07-30T10:47:01;3.55;;;1.42;;
5521;SDS011;2783;48.730;8.006;2023-07-30T10:49:27;1.58;;;0.88;;
5521;SDS011;2783;48.730;8.006;2023-07-30T10:51:56;2.75;;;1.20;;
5521;SDS011;2783;48.730;8.006;2023-07-30T10:54:22;1.85;;;0.80;;
5521;SDS011;2783;48.730;8.006;2023-07-30T10:56:48;3.45;;;1.10;;
5521;SDS011;2783;48.730;8.006;2023-07-30T10:59:14;2.33;;;0.95;;
5521;SDS011;2783;48.730;8.006;2023-07-30T11:01:41;2.63;;;1.00;;
5521;SDS011;2783;48.730;8.006;2023-07-30T11:04:09;2.55;;;1.10;;
5521;SDS011;2783;48.730;8.006;2023-07-30T11:06:48;4.63;;;1.05;;
5521;SDS011;2783;48.730;8.006;2023-07-30T11:09:18;2.50;;;1.08;;
5521;SDS011;2783;48.730;8.006;2023-07-30T11:11:45;4.70;;;1.10;;
5521;SDS011;2783;48.730;8.006;2023-07-30T11:14:14;4.10;;;1.05;;
5521;SDS011;2783;48.730;8.006;2023-07-30T11:16:49;5.75;;;1.17;;
5521;SDS011;2783;48.730;8.006;2023-07-30T11:19:16;2.25;;;1.08;;
5521;SDS011;2783;48.730;8.006;2023-07-30T11:21:46;3.00;;;0.90;;
5521;SDS011;2783;48.730;8.006;2023-07-30T11:24:12;2.85;;;0.90;;
5521;SDS011;2783;48.730;8.006;2023-07-30T11:26:38;1.88;;;1.00;;
5521;SDS011;2783;48.730;8.006;2023-07-30T11:29:16;4.78;;;1.10;;
5521;SDS011;2783;48.730;8.006;2023-07-30T11:31:45;5.55;;;0.95;;
5521;SDS011;2783;48.730;8.006;2023-07-30T11:34:14;2.05;;;0.88;;
5521;SDS011;2783;48.730;8.006;2023-07-30T11:36:41;3.97;;;1.00;;
5521;SDS011;2783;48.730;8.006;2023-07-30T11:39:08;3.78;;;1.02;;
5521;SDS011;2783;48.730;8.006;2023-07-30T11:41:34;3.28;;;1.23;;
5521;SDS011;2783;48.730;8.006;2023-07-30T11:44:00;3.03;;;0.98;;
5521;SDS011;2783;48.730;8.006;2023-07-30T11:46:26;2.83;;;1.17;;
5521;SDS011;2783;48.730;8.006;2023-07-30T11:48:52;3.20;;;0.95;;
5521;SDS011;2783;48.730;8.006;2023-07-30T11:51:34;2.90;;;0.70;;
5521;SDS011;2783;48.730;8.006;2023-07-30T11:54:00;3.28;;;1.00;;
5521;SDS011;2783;48.730;8.006;2023-07-30T11:56:30;2.50;;;1.10;;
5521;SDS011;2783;48.730;8.006;2023-07-30T11:59:01;0.90;;;0.77;;
5521;SDS011;2783;48.730;8.006;2023-07-30T12:01:33;3.13;;;0.98;;
5521;SDS011;2783;48.730;8.006;2023-07-30T12:04:00;2.58;;;0.90;;
5521;SDS011;2783;48.730;8.006;2023-07-30T12:06:42;2.15;;;1.08;;
5521;SDS011;2783;48.730;8.006;2023-07-30T12:09:13;5.37;;;1.60;;
5521;SDS011;2783;48.730;8.006;2023-07-30T12:11:49;3.08;;;1.00;;
5521;SDS011;2783;48.730;8.006;2023-07-30T12:14:21;2.42;;;1.00;;
5521;SDS011;2783;48.730;8.006;2023-07-30T12:16:50;2.50;;;1.13;;
5521;SDS011;2783;48.730;8.006;2023-07-30T12:19:16;2.55;;;1.00;;
5521;SDS011;2783;48.730;8.006;2023-07-30T12:21:41;5.18;;;0.98;;
5521;SDS011;2783;48.730;8.006;2023-07-30T12:24:07;4.90;;;0.90;;
5521;SDS011;2783;48.730;8.006;2023-07-30T12:26:32;2.13;;;0.98;;
5521;SDS011;2783;48.730;8.006;2023-07-30T12:28:57;2.50;;;0.90;;
5521;SDS011;2783;48.730;8.006;2023-07-30T12:31:23;2.22;;;0.77;;
5521;SDS011;2783;48.730;8.006;2023-07-30T12:33:48;3.45;;;0.98;;
5521;SDS011;2783;48.730;8.006;2023-07-30T12:36:14;1.92;;;0.90;;
5521;SDS011;2783;48.730;8.006;2023-07-30T12:38:39;2.08;;;0.88;;
5521;SDS011;2783;48.730;8.006;2023-07-30T12:41:05;4.80;;;1.10;;
5521;SDS011;2783;48.730;8.006;2023-07-30T12:43:30;3.28;;;0.95;;
5521;SDS011;2783;48.730;8.006;2023-07-30T12:45:56;4.38;;;1.00;;
5521;SDS011;2783;48.730;8.006;2023-07-30T12:48:21;4.82;;;0.88;;
5521;SDS011;2783;48.730;8.006;2023-07-30T12:50:46;2.70;;;0.90;;
5521;SDS011;2783;48.730;8.006;2023-07-30T12:53:12;3.25;;;0.75;;
5521;SDS011;2783;48.730;8.006;2023-07-30T12:55:38;3.83;;;0.80;;
5521;SDS011;2783;48.730;8.006;2023-07-30T12:58:04;7.47;;;0.93;;
5521;SDS011;2783;48.730;8.006;2023-07-30T13:00:30;5.97;;;0.98;;
5521;SDS011;2783;48.730;8.006;2023-07-30T13:02:55;2.33;;;1.05;;
5521;SDS011;2783;48.730;8.006;2023-07-30T13:05:22;3.95;;;0.90;;
5521;SDS011;2783;48.730;8.006;2023-07-30T13:07:47;2.78;;;0.90;;
5521;SDS011;2783;48.730;8.006;2023-07-30T13:10:13;3.53;;;0.93;;
5521;SDS011;2783;48.730;8.006;2023-07-30T13:12:38;2.03;;;0.85;;
5521;SDS011;2783;48.730;8.006;2023-07-30T13:15:04;1.48;;;0.73;;
5521;SDS011;2783;48.730;8.006;2023-07-30T13:17:30;3.00;;;0.82;;
5521;SDS011;2783;48.730;8.006;2023-07-30T13:19:56;3.00;;;0.90;;
5521;SDS011;2783;48.730;8.006;2023-07-30T13:22:22;3.75;;;1.25;;
5521;SDS011;2783;48.730;8.006;2023-07-30T13:24:47;3.47;;;0.88;;
5521;SDS011;2783;48.730;8.006;2023-07-30T13:27:12;2.78;;;0.85;;
5521;SDS011;2783;48.730;8.006;2023-07-30T13:29:38;2.65;;;1.27;;
5521;SDS011;2783;48.730;8.006;2023-07-30T13:32:03;3.65;;;0.90;;
5521;SDS011;2783;48.730;8.006;2023-07-30T13:34:30;2.70;;;1.00;;
5521;SDS011;2783;48.730;8.006;2023-07-30T13:36:56;1.55;;;0.73;;
5521;SDS011;2783;48.730;8.006;2023-07-30T13:39:22;1.67;;;0.70;;
5521;SDS011;2783;48.730;8.006;2023-07-30T13:41:47;2.50;;;0.70;;
5521;SDS011;2783;48.730;8.006;2023-07-30T13:44:12;2.83;;;0.90;;
5521;SDS011;2783;48.730;8.006;2023-07-30T13:46:38;3.85;;;0.77;;
5521;SDS011;2783;48.730;8.006;2023-07-30T13:49:05;3.17;;;0.80;;
5521;SDS011;2783;48.730;8.006;2023-07-30T13:51:31;2.60;;;0.70;;
5521;SDS011;2783;48.730;8.006;2023-07-30T13:54:00;3.45;;;0.95;;
5521;SDS011;2783;48.730;8.006;2023-07-30T13:56:27;1.50;;;0.65;;
5521;SDS011;2783;48.730;8.006;2023-07-30T13:58:53;1.88;;;0.75;;
5521;SDS011;2783;48.730;8.006;2023-07-30T14:01:18;1.55;;;0.63;;
5521;SDS011;2783;48.730;8.006;2023-07-30T14:03:44;4.30;;;0.82;;
5521;SDS011;2783;48.730;8.006;2023-07-30T14:06:09;3.88;;;1.35;;
5521;SDS011;2783;48.730;8.006;2023-07-30T14:08:36;3.75;;;0.68;;
5521;SDS011;2783;48.730;8.006;2023-07-30T14:11:01;2.50;;;0.75;;
5521;SDS011;2783;48.730;8.006;2023-07-30T14:13:26;2.78;;;0.63;;
5521;SDS011;2783;48.730;8.006;2023-07-30T14:15:52;5.22;;;0.90;;
5521;SDS011;2783;48.730;8.006;2023-07-30T14:18:17;2.45;;;0.95;;
5521;SDS011;2783;48.730;8.006;2023-07-30T14:20:43;3.30;;;0.88;;
5521;SDS011;2783;48.730;8.006;2023-07-30T14:23:09;3.67;;;1.13;;
5521;SDS011;2783;48.730;8.006;2023-07-30T14:25:35;3.25;;;0.60;;
5521;SDS011;2783;48.730;8.006;2023-07-30T14:28:01;2.92;;;0.77;;
5521;SDS011;2783;48.730;8.006;2023-07-30T14:30:27;3.13;;;0.63;;
5521;SDS011;2783;48.730;8.006;2023-07-30T14:32:52;3.33;;;0.60;;
5521;SDS011;2783;48.730;8.006;2023-07-30T14:35:18;1.40;;;0.60;;
5521;SDS011;2783;48.730;8.006;2023-07-30T14:37:43;5.07;;;0.60;;
5521;SDS011;2783;48.730;8.006;2023-07-30T14:40:08;5.25;;;1.00;;
5521;SDS011;2783;48.730;8.006;2023-07-30T14:42:34;1.88;;;0.65;;
5521;SDS011;2783;48.730;8.006;2023-07-30T14:45:00;3.47;;;0.63;;
5521;SDS011;2783;48.730;8.006;2023-07-30T14:47:25;1.58;;;0.75;;
5521;SDS011;2783;48.730;8.006;2023-07-30T14:49:51;2.75;;;0.80;;
5521;SDS011;2783;48.730;8.006;2023-07-30T14:52:17;1.38;;;0.50;;
5521;SDS011;2783;48.730;8.006;2023-07-30T14:54:43;7.57;;;0.73;;
5521;SDS011;2783;48.730;8.006;2023-07-30T14:57:09;1.63;;;0.60;;
5521;SDS011;2783;48.730;8.006;2023-07-30T14:59:35;2.25;;;0.80;;
5521;SDS011;2783;48.730;8.006;2023-07-30T15:02:00;2.80;;;0.65;;
5521;SDS011;2783;48.730;8.006;2023-07-30T15:04:26;4.30;;;0.65;;
5521;SDS011;2783;48.730;8.006;2023-07-30T15:06:51;1.95;;;0.68;;
5521;SDS011;2783;48.730;8.006;2023-07-30T15:09:17;2.88;;;0.50;;
5521;SDS011;2783;48.730;8.006;2023-07-30T15:11:42;3.60;;;1.00;;